sensor_id;sensor_type;location;lat;lon;timestamp;P1;durP1;ratioP1;P2;durP2;ratioP2
68507;SDS011;55510;49.560;19.090;2023-03-11T10:29:47;4.28;;;1.60;;
68507;SDS011;55510;49.560;19.090;2023-03-11T10:33:16;9.63;;;2.35;;
68507;SDS011;55510;49.560;19.090;2023-03-11T10:36:22;5.18;;;1.25;;
68507;SDS011;55510;49.560;19.090;2023-03-11T10:39:26;2.37;;;0.50;;
68507;SDS011;55510;49.560;19.090;2023-03-11T10:42:28;4.53;;;1.45;;
68507;SDS011;55510;49.560;19.090;2023-03-11T10:45:32;9.43;;;3.55;;
68507;SDS011;55510;49.560;19.090;2023-03-11T10:48:37;7.68;;;3.03;;
68507;SDS011;55510;49.560;19.090;2023-03-11T10:51:37;21.40;;;6.47;;
68507;SDS011;55510;49.560;19.090;2023-03-11T10:54:57;25.65;;;10.38;;
68507;SDS011;55510;49.560;19.090;2023-03-11T10:58:03;9.32;;;2.53;;
68507;SDS011;55510;49.560;19.090;2023-03-11T11:01:15;7.20;;;2.67;;
68507;SDS011;55510;49.560;19.090;2023-03-11T11:04:23;6.67;;;2.40;;
68507;SDS011;55510;49.560;19.090;2023-03-11T11:07:48;6.97;;;2.08;;
68507;SDS011;55510;49.560;19.090;2023-03-11T11:10:53;6.90;;;1.95;;
68507;SDS011;55510;49.560;19.090;2023-03-11T11:13:59;4.20;;;0.85;;
68507;SDS011;55510;49.560;19.090;2023-03-11T11:17:00;3.95;;;1.42;;
68507;SDS011;55510;49.560;19.090;2023-03-11T11:20:01;5.23;;;1.50;;
68507;SDS011;55510;49.560;19.090;2023-03-11T11:23:23;2.85;;;0.47;;
68507;SDS011;55510;49.560;19.090;2023-03-11T11:26:26;2.65;;;0.88;;
68507;SDS011;55510;49.560;19.090;2023-03-11T11:29:27;3.40;;;1.23;;
68507;SDS011;55510;49.560;19.090;2023-03-11T11:32:28;2.53;;;0.70;;
68507;SDS011;55510;49.560;19.090;2023-03-11T11:35:29;2.33;;;0.60;;
68507;SDS011;55510;49.560;19.090;2023-03-11T11:38:30;4.03;;;1.10;;
68507;SDS011;55510;49.560;19.090;2023-03-11T11:41:32;2.83;;;0.80;;
68507;SDS011;55510;49.560;19.090;2023-03-11T11:44:38;3.58;;;1.13;;
68507;SDS011;55510;49.560;19.090;2023-03-11T11:47:46;6.38;;;2.92;;
68507;SDS011;55510;49.560;19.090;2023-03-11T11:50:52;2.85;;;0.50;;
68507;SDS011;55510;49.560;19.090;2023-03-11T11:57:25;41.38;;;22.55;;
68507;SDS011;55510;49.560;19.090;2023-03-11T12:00:36;8.50;;;3.35;;
68507;SDS011;55510;49.560;19.090;2023-03-11T12:07:03;22.63;;;7.57;;
68507;SDS011;55510;49.560;19.090;2023-03-11T12:17:00;9.70;;;3.95;;
68507;SDS011;55510;49.560;19.090;2023-03-11T12:20:05;6.13;;;1.83;;
68507;SDS011;55510;49.560;19.090;2023-03-11T12:23:15;8.90;;;2.30;;
68507;SDS011;55510;49.560;19.090;2023-03-11T12:35:33;12.02;;;4.30;;
68507;SDS011;55510;49.560;19.090;2023-03-11T12:38:38;10.03;;;2.67;;
68507;SDS011;55510;49.560;19.090;2023-03-11T12:41:39;16.57;;;6.40;;
68507;SDS011;55510;49.560;19.090;2023-03-11T12:44:42;13.32;;;4.97;;
68507;SDS011;55510;49.560;19.090;2023-03-11T12:47:44;21.45;;;8.55;;
68507;SDS011;55510;49.560;19.090;2023-03-11T12:50:45;18.93;;;7.30;;
68507;SDS011;55510;49.560;19.090;2023-03-11T12:53:47;15.77;;;6.13;;
68507;SDS011;55510;49.560;19.090;2023-03-11T12:56:59;66.60;;;26.60;;
68507;SDS011;55510;49.560;19.090;2023-03-11T13:06:41;10.93;;;3.97;;
68507;SDS011;55510;49.560;19.090;2023-03-11T13:36:06;11.13;;;4.93;;
68507;SDS011;55510;49.560;19.090;2023-03-11T13:42:23;22.40;;;7.87;;
68507;SDS011;55510;49.560;19.090;2023-03-11T13:45:30;20.05;;;7.43;;
68507;SDS011;55510;49.560;19.090;2023-03-11T13:48:41;29.80;;;12.20;;
68507;SDS011;55510;49.560;19.090;2023-03-11T13:51:45;21.70;;;9.55;;
68507;SDS011;55510;49.560;19.090;2023-03-11T13:54:51;28.03;;;11.13;;
68507;SDS011;55510;49.560;19.090;2023-03-11T13:57:58;35.27;;;11.77;;
68507;SDS011;55510;49.560;19.090;2023-03-11T14:01:00;32.58;;;11.27;;
68507;SDS011;55510;49.560;19.090;2023-03-11T14:04:01;27.52;;;10.15;;
68507;SDS011;55510;49.560;19.090;2023-03-11T14:10:28;31.02;;;13.80;;
68507;SDS011;55510;49.560;19.090;2023-03-11T14:13:31;33.17;;;12.20;;
68507;SDS011;55510;49.560;19.090;2023-03-11T14:16:33;27.83;;;11.60;;
68507;SDS011;55510;49.560;19.090;2023-03-11T14:20:00;24.85;;;10.90;;
68507;SDS011;55510;49.560;19.090;2023-03-11T14:23:10;17.97;;;8.47;;
68507;SDS011;55510;49.560;19.090;2023-03-11T14:26:22;16.77;;;6.73;;
68507;SDS011;55510;49.560;19.090;2023-03-11T14:32:32;23.30;;;9.85;;
68507;SDS011;55510;49.560;19.090;2023-03-11T14:35:33;19.95;;;7.28;;
68507;SDS011;55510;49.560;19.090;2023-03-11T14:38:40;16.13;;;7.30;;
68507;SDS011;55510;49.560;19.090;2023-03-11T14:41:42;14.95;;;6.10;;
68507;SDS011;55510;49.560;19.090;2023-03-11T14:44:45;23.70;;;10.40;;
68507;SDS011;55510;49.560;19.090;2023-03-11T14:51:03;84.80;;;25.03;;
68507;SDS011;55510;49.560;19.090;2023-03-11T14:54:11;69.43;;;20.95;;
68507;SDS011;55510;49.560;19.090;2023-03-11T14:57:18;48.28;;;14.55;;
68507;SDS011;55510;49.560;19.090;2023-03-11T15:00:24;38.38;;;13.40;;
68507;SDS011;55510;49.560;19.090;2023-03-11T15:03:30;33.73;;;12.77;;
68507;SDS011;55510;49.560;19.090;2023-03-11T15:06:34;21.17;;;8.83;;
68507;SDS011;55510;49.560;19.090;2023-03-11T15:09:39;17.73;;;6.95;;
68507;SDS011;55510;49.560;19.090;2023-03-11T15:12:41;31.17;;;10.90;;
68507;SDS011;55510;49.560;19.090;2023-03-11T15:15:43;14.40;;;7.20;;
68507;SDS011;55510;49.560;19.090;2023-03-11T15:18:55;12.57;;;4.23;;
68507;SDS011;55510;49.560;19.090;2023-03-11T15:21:57;8.97;;;3.33;;
68507;SDS011;55510;49.560;19.090;2023-03-11T15:25:02;10.30;;;3.42;;
68507;SDS011;55510;49.560;19.090;2023-03-11T15:28:14;11.23;;;4.45;;
68507;SDS011;55510;49.560;19.090;2023-03-11T15:34:21;15.87;;;6.30;;
68507;SDS011;55510;49.560;19.090;2023-03-11T15:37:25;8.73;;;2.75;;
68507;SDS011;55510;49.560;19.090;2023-03-11T15:40:27;7.57;;;2.60;;
68507;SDS011;55510;49.560;19.090;2023-03-11T15:43:29;10.07;;;4.43;;
68507;SDS011;55510;49.560;19.090;2023-03-11T15:46:32;19.77;;;7.78;;
68507;SDS011;55510;49.560;19.090;2023-03-11T15:49:33;18.33;;;7.32;;
68507;SDS011;55510;49.560;19.090;2023-03-11T15:52:34;14.95;;;4.82;;
68507;SDS011;55510;49.560;19.090;2023-03-11T15:55:34;12.10;;;4.97;;
68507;SDS011;55510;49.560;19.090;2023-03-11T15:58:39;26.67;;;12.27;;
68507;SDS011;55510;49.560;19.090;2023-03-11T16:01:40;38.53;;;13.13;;
68507;SDS011;55510;49.560;19.090;2023-03-11T16:04:41;32.97;;;11.95;;
68507;SDS011;55510;49.560;19.090;2023-03-11T16:07:42;72.47;;;26.97;;
68507;SDS011;55510;49.560;19.090;2023-03-11T16:10:43;73.70;;;24.48;;
68507;SDS011;55510;49.560;19.090;2023-03-11T16:13:43;44.90;;;18.03;;
68507;SDS011;55510;49.560;19.090;2023-03-11T16:16:44;29.20;;;12.13;;
68507;SDS011;55510;49.560;19.090;2023-03-11T16:19:45;29.20;;;13.75;;
68507;SDS011;55510;49.560;19.090;2023-03-11T16:22:47;11.50;;;4.73;;
68507;SDS011;55510;49.560;19.090;2023-03-11T16:25:49;13.93;;;5.00;;
68507;SDS011;55510;49.560;19.090;2023-03-11T16:28:52;22.20;;;9.35;;
68507;SDS011;55510;49.560;19.090;2023-03-11T16:31:53;18.47;;;5.77;;
68507;SDS011;55510;49.560;19.090;2023-03-11T16:34:54;17.42;;;4.68;;
68507;SDS011;55510;49.560;19.090;2023-03-11T16:37:55;56.67;;;21.03;;
68507;SDS011;55510;49.560;19.090;2023-03-11T16:40:57;31.50;;;13.85;;
68507;SDS011;55510;49.560;19.090;2023-03-11T16:43:59;26.00;;;11.80;;
68507;SDS011;55510;49.560;19.090;2023-03-11T16:47:00;12.63;;;5.23;;
68507;SDS011;55510;49.560;19.090;2023-03-11T16:50:01;15.90;;;5.60;;
68507;SDS011;55510;49.560;19.090;2023-03-11T16:53:02;23.80;;;10.37;;
68507;SDS011;55510;49.560;19.090;2023-03-11T16:56:03;24.35;;;9.77;;
68507;SDS011;55510;49.560;19.090;2023-03-11T16:59:05;20.17;;;7.37;;
68507;SDS011;55510;49.560;19.090;2023-03-11T17:02:05;24.45;;;8.05;;
68507;SDS011;55510;49.560;19.090;2023-03-11T17:05:07;42.50;;;13.03;;
68507;SDS011;55510;49.560;19.090;2023-03-11T17:08:09;46.55;;;13.73;;
68507;SDS011;55510;49.560;19.090;2023-03-11T17:11:28;51.40;;;19.80;;
68507;SDS011;55510;49.560;19.090;2023-03-11T17:14:29;85.88;;;22.08;;
68507;SDS011;55510;49.560;19.090;2023-03-11T17:17:31;81.70;;;25.08;;
68507;SDS011;55510;49.560;19.090;2023-03-11T17:20:32;73.53;;;18.80;;
68507;SDS011;55510;49.560;19.090;2023-03-11T17:23:33;98.75;;;25.20;;
68507;SDS011;55510;49.560;19.090;2023-03-11T17:26:34;33.07;;;11.37;;
68507;SDS011;55510;49.560;19.090;2023-03-11T17:29:35;48.33;;;15.60;;
68507;SDS011;55510;49.560;19.090;2023-03-11T17:32:38;27.42;;;10.38;;
68507;SDS011;55510;49.560;19.090;2023-03-11T17:35:39;14.77;;;5.00;;
68507;SDS011;55510;49.560;19.090;2023-03-11T17:38:40;28.92;;;6.57;;
68507;SDS011;55510;49.560;19.090;2023-03-11T17:41:42;27.55;;;9.40;;
68507;SDS011;55510;49.560;19.090;2023-03-11T17:44:42;34.30;;;17.80;;
68507;SDS011;55510;49.560;19.090;2023-03-11T17:47:43;22.48;;;8.40;;
68507;SDS011;55510;49.560;19.090;2023-03-11T17:50:44;33.25;;;9.70;;
68507;SDS011;55510;49.560;19.090;2023-03-11T17:53:45;18.80;;;5.53;;
68507;SDS011;55510;49.560;19.090;2023-03-11T17:56:47;20.20;;;8.82;;
68507;SDS011;55510;49.560;19.090;2023-03-11T17:59:51;34.00;;;13.05;;
68507;SDS011;55510;49.560;19.090;2023-03-11T18:02:51;77.70;;;25.38;;
68507;SDS011;55510;49.560;19.090;2023-03-11T18:06:02;40.43;;;14.87;;
68507;SDS011;55510;49.560;19.090;2023-03-11T18:09:04;34.97;;;10.10;;
68507;SDS011;55510;49.560;19.090;2023-03-11T18:12:05;25.10;;;8.52;;
68507;SDS011;55510;49.560;19.090;2023-03-11T18:15:06;17.90;;;7.57;;
68507;SDS011;55510;49.560;19.090;2023-03-11T18:18:13;16.67;;;6.00;;
68507;SDS011;55510;49.560;19.090;2023-03-11T18:21:18;19.50;;;7.90;;
68507;SDS011;55510;49.560;19.090;2023-03-11T18:24:20;14.65;;;6.18;;
68507;SDS011;55510;49.560;19.090;2023-03-11T18:27:20;52.50;;;14.03;;
68507;SDS011;55510;49.560;19.090;2023-03-11T18:30:21;50.90;;;16.05;;
68507;SDS011;55510;49.560;19.090;2023-03-11T18:33:22;50.50;;;16.63;;
68507;SDS011;55510;49.560;19.090;2023-03-11T18:36:27;42.65;;;14.80;;
68507;SDS011;55510;49.560;19.090;2023-03-11T18:39:29;32.50;;;12.55;;
68507;SDS011;55510;49.560;19.090;2023-03-11T18:42:30;22.00;;;8.97;;
68507;SDS011;55510;49.560;19.090;2023-03-11T18:45:31;19.40;;;8.48;;
68507;SDS011;55510;49.560;19.090;2023-03-11T18:48:32;35.73;;;15.87;;
68507;SDS011;55510;49.560;19.090;2023-03-11T18:51:32;31.75;;;14.52;;
68507;SDS011;55510;49.560;19.090;2023-03-11T18:54:33;17.40;;;8.60;;
68507;SDS011;55510;49.560;19.090;2023-03-11T18:57:34;33.63;;;9.43;;
68507;SDS011;55510;49.560;19.090;2023-03-11T19:00:35;46.90;;;11.47;;
68507;SDS011;55510;49.560;19.090;2023-03-11T19:03:35;31.20;;;9.32;;
68507;SDS011;55510;49.560;19.090;2023-03-11T19:06:37;21.00;;;8.07;;
68507;SDS011;55510;49.560;19.090;2023-03-11T19:09:38;21.13;;;6.57;;
68507;SDS011;55510;49.560;19.090;2023-03-11T19:12:39;33.95;;;11.05;;
68507;SDS011;55510;49.560;19.090;2023-03-11T19:15:40;34.85;;;11.02;;
68507;SDS011;55510;49.560;19.090;2023-03-11T19:18:41;35.03;;;11.20;;
68507;SDS011;55510;49.560;19.090;2023-03-11T19:21:42;48.40;;;16.80;;
68507;SDS011;55510;49.560;19.090;2023-03-11T19:24:43;36.57;;;15.63;;
68507;SDS011;55510;49.560;19.090;2023-03-11T19:27:43;45.28;;;17.33;;
68507;SDS011;55510;49.560;19.090;2023-03-11T19:30:44;47.70;;;19.17;;
68507;SDS011;55510;49.560;19.090;2023-03-11T19:33:49;42.45;;;16.83;;
68507;SDS011;55510;49.560;19.090;2023-03-11T19:36:50;26.67;;;8.73;;
68507;SDS011;55510;49.560;19.090;2023-03-11T19:39:51;22.57;;;9.83;;
68507;SDS011;55510;49.560;19.090;2023-03-11T19:42:52;34.03;;;11.43;;
68507;SDS011;55510;49.560;19.090;2023-03-11T19:45:52;25.57;;;8.57;;
68507;SDS011;55510;49.560;19.090;2023-03-11T19:48:54;16.17;;;5.43;;
68507;SDS011;55510;49.560;19.090;2023-03-11T19:51:57;17.83;;;5.68;;
68507;SDS011;55510;49.560;19.090;2023-03-11T19:54:58;15.37;;;6.13;;
68507;SDS011;55510;49.560;19.090;2023-03-11T19:57:59;13.52;;;5.15;;
68507;SDS011;55510;49.560;19.090;2023-03-11T20:01:00;13.37;;;4.73;;
68507;SDS011;55510;49.560;19.090;2023-03-11T20:04:01;13.68;;;5.05;;
68507;SDS011;55510;49.560;19.090;2023-03-11T20:07:02;15.00;;;5.22;;
68507;SDS011;55510;49.560;19.090;2023-03-11T20:16:22;16.35;;;5.93;;
68507;SDS011;55510;49.560;19.090;2023-03-11T20:19:23;9.50;;;3.72;;
68507;SDS011;55510;49.560;19.090;2023-03-11T20:22:23;10.57;;;4.20;;
68507;SDS011;55510;49.560;19.090;2023-03-11T20:25:24;12.98;;;3.30;;
68507;SDS011;55510;49.560;19.090;2023-03-11T20:28:25;12.10;;;4.30;;
68507;SDS011;55510;49.560;19.090;2023-03-11T20:31:26;21.15;;;8.07;;
68507;SDS011;55510;49.560;19.090;2023-03-11T20:34:27;13.77;;;4.57;;
68507;SDS011;55510;49.560;19.090;2023-03-11T20:37:29;8.27;;;3.17;;
68507;SDS011;55510;49.560;19.090;2023-03-11T20:40:30;9.52;;;4.03;;
68507;SDS011;55510;49.560;19.090;2023-03-11T20:43:31;14.02;;;4.45;;
68507;SDS011;55510;49.560;19.090;2023-03-11T20:46:32;15.45;;;5.85;;
68507;SDS011;55510;49.560;19.090;2023-03-11T20:49:33;17.30;;;6.07;;
68507;SDS011;55510;49.560;19.090;2023-03-11T20:52:34;19.10;;;5.45;;
68507;SDS011;55510;49.560;19.090;2023-03-11T20:55:37;14.50;;;4.97;;
68507;SDS011;55510;49.560;19.090;2023-03-11T20:58:40;15.00;;;5.23;;
68507;SDS011;55510;49.560;19.090;2023-03-11T21:01:42;18.07;;;6.47;;
68507;SDS011;55510;49.560;19.090;2023-03-11T21:04:43;17.15;;;6.32;;
